createdAt,value
2023-01-21T01:04:29.539Z,18.55
2023-01-21T01:07:02.774Z,17.83
2023-01-21T01:09:34.336Z,17.40
2023-01-21T01:12:05.601Z,19.30
2023-01-21T01:14:36.514Z,18.20
2023-01-21T01:17:08.726Z,18.05
2023-01-21T01:19:39.606Z,17.75
2023-01-21T01:22:10.376Z,18.48
2023-01-21T01:24:41.562Z,18.13
2023-01-21T01:27:12.856Z,18.95
2023-01-21T01:29:43.510Z,18.88
2023-01-21T01:32:14.379Z,19.05
2023-01-21T01:34:46.562Z,19.05
2023-01-21T01:37:18.287Z,18.73
2023-01-21T01:39:50.104Z,17.92
2023-01-21T01:42:20.922Z,18.05
2023-01-21T01:45:01.190Z,17.83
2023-01-21T01:47:45.082Z,19.10
2023-01-21T01:50:20.053Z,17.80
2023-01-21T01:52:51.593Z,19.08
2023-01-21T01:55:22.921Z,18.60
2023-01-21T01:58:16.330Z,17.48
2023-01-21T02:00:47.990Z,18.10
2023-01-21T02:03:38.003Z,18.00
2023-01-21T02:06:09.127Z,18.55
2023-01-21T02:08:41.256Z,18.00
2023-01-21T02:11:20.715Z,19.05
2023-01-21T02:13:57.543Z,18.48
2023-01-21T02:16:40.585Z,18.85
2023-01-21T02:19:29.336Z,18.63
2023-01-21T02:22:12.562Z,17.00
2023-01-21T02:25:08.498Z,18.50
2023-01-21T02:27:46.021Z,17.48
2023-01-21T02:30:36.896Z,19.15
2023-01-21T02:33:27.673Z,17.98
2023-01-21T02:36:12.819Z,17.40
2023-01-21T02:42:44.462Z,18.15
2023-01-21T02:45:57.816Z,16.65
2023-01-21T02:48:38.535Z,16.98
2023-01-21T02:51:09.473Z,17.05
2023-01-21T02:53:40.453Z,17.17
2023-01-21T02:56:19.552Z,16.38
2023-01-21T02:58:54.889Z,17.20
2023-01-21T03:02:05.621Z,16.77
2023-01-21T03:07:35.532Z,16.60
2023-01-21T03:10:21.774Z,17.20
2023-01-21T03:12:53.668Z,16.75
2023-01-21T03:16:14.223Z,17.15
2023-01-21T03:19:08.472Z,16.25
2023-01-21T03:21:39.822Z,16.20
2023-01-21T03:24:11.337Z,16.63
2023-01-21T03:26:51.723Z,16.27
2023-01-21T03:29:27.351Z,16.77
2023-01-21T03:32:05.234Z,16.92
2023-01-21T03:34:39.730Z,16.55
2023-01-21T03:37:25.662Z,16.08
2023-01-21T03:40:27.011Z,18.27
2023-01-21T03:42:57.963Z,16.88
2023-01-21T03:45:43.488Z,16.83
2023-01-21T03:48:46.074Z,15.90
2023-01-21T03:51:27.988Z,16.08
2023-01-21T03:54:00.459Z,16.17
2023-01-21T03:56:56.646Z,17.00
2023-01-21T03:59:31.799Z,17.27
2023-01-21T04:04:46.702Z,15.38
2023-01-21T04:07:20.519Z,16.80
2023-01-21T04:09:54.074Z,17.27
2023-01-21T04:12:25.122Z,16.95
2023-01-21T04:14:57.670Z,16.08
2023-01-21T04:17:29.613Z,16.75
2023-01-21T04:20:00.441Z,16.55
2023-01-21T04:22:31.409Z,16.10
2023-01-21T04:25:02.414Z,16.30
2023-01-21T04:27:33.459Z,17.58
2023-01-21T04:30:04.501Z,17.20
2023-01-21T04:32:35.315Z,16.88
2023-01-21T04:35:07.817Z,16.98
2023-01-21T04:37:38.928Z,16.60
2023-01-21T04:40:10.635Z,16.38
2023-01-21T04:42:42.321Z,17.30
2023-01-21T04:45:13.818Z,16.42
2023-01-21T04:47:48.830Z,16.42
2023-01-21T04:50:20.806Z,17.45
2023-01-21T04:52:53.989Z,15.98
2023-01-21T04:55:26.285Z,16.30
2023-01-21T04:57:57.540Z,16.10
2023-01-21T05:00:29.787Z,16.20
2023-01-21T05:03:02.034Z,16.00
2023-01-21T05:05:58.856Z,15.88
2023-01-21T05:08:30.003Z,16.92
2023-01-21T05:11:23.470Z,16.35
2023-01-21T05:13:55.010Z,16.45
2023-01-21T05:16:47.905Z,16.63
2023-01-21T05:19:19.195Z,16.58
2023-01-21T05:21:49.978Z,16.13
2023-01-21T05:24:22.718Z,16.45
2023-01-21T05:26:54.091Z,16.23
2023-01-21T05:29:25.035Z,16.35
2023-01-21T05:31:55.748Z,16.65
2023-01-21T05:34:28.989Z,16.92
2023-01-21T05:36:59.760Z,15.27
2023-01-21T05:39:30.602Z,15.63
2023-01-21T05:42:01.578Z,15.18
2023-01-21T05:44:32.605Z,16.20
2023-01-21T05:47:03.677Z,16.05
2023-01-21T05:49:35.597Z,15.68
2023-01-21T05:52:13.279Z,14.77
2023-01-21T05:55:00.599Z,15.93
2023-01-21T05:57:34.160Z,16.60
2023-01-21T06:00:06.589Z,15.55
2023-01-21T06:02:37.616Z,15.48
2023-01-21T06:05:09.028Z,15.07
2023-01-21T06:07:41.400Z,15.93
2023-01-21T06:10:14.037Z,15.65
2023-01-21T06:13:07.763Z,15.48
2023-01-21T06:15:38.989Z,14.63
2023-01-21T06:18:11.523Z,15.68
2023-01-21T06:20:43.014Z,15.20
2023-01-21T06:23:16.007Z,15.10
2023-01-21T06:25:46.986Z,15.93
2023-01-21T06:28:18.013Z,15.70
2023-01-21T06:30:53.386Z,16.10
2023-01-21T06:33:25.079Z,16.00
2023-01-21T06:35:56.443Z,15.70
2023-01-21T06:38:27.643Z,15.35
2023-01-21T06:40:58.647Z,14.63
2023-01-21T06:43:30.003Z,14.00
2023-01-21T06:46:01.074Z,15.27
2023-01-21T06:48:33.293Z,14.93
2023-01-21T06:51:06.069Z,15.35
2023-01-21T06:53:40.126Z,15.10
2023-01-21T06:56:11.154Z,16.42
2023-01-21T06:59:01.913Z,15.00
2023-01-21T07:01:33.407Z,14.52
2023-01-21T07:04:04.999Z,15.05
2023-01-21T07:06:46.509Z,14.27
2023-01-21T07:09:17.809Z,14.98
2023-01-21T07:11:49.310Z,15.07
2023-01-21T07:14:20.159Z,14.95
2023-01-21T07:16:51.208Z,14.60
2023-01-21T07:19:24.451Z,14.82
2023-01-21T07:21:56.630Z,15.00
2023-01-21T07:24:27.801Z,15.13
2023-01-21T07:27:07.530Z,15.90
2023-01-21T07:29:38.583Z,16.17
2023-01-21T07:32:09.749Z,16.00
2023-01-21T07:34:50.223Z,16.38
2023-01-21T07:37:22.939Z,15.68
2023-01-21T07:39:57.028Z,14.60
2023-01-21T07:42:28.302Z,16.00
2023-01-21T07:45:03.982Z,17.65
2023-01-21T07:47:35.073Z,17.38
2023-01-21T07:50:10.026Z,16.95
2023-01-21T07:52:41.154Z,17.42
2023-01-21T07:55:12.960Z,17.33
2023-01-21T07:57:45.534Z,18.00
2023-01-21T08:00:18.299Z,16.45
2023-01-21T08:02:55.448Z,17.30
2023-01-21T08:05:27.669Z,18.15
2023-01-21T08:08:25.342Z,19.10
2023-01-21T08:10:57.245Z,18.05
2023-01-21T08:13:28.503Z,17.10
2023-01-21T08:16:02.615Z,18.13
2023-01-21T08:18:36.875Z,18.90
2023-01-21T08:21:08.297Z,18.40
2023-01-21T08:23:39.468Z,18.83
2023-01-21T08:26:12.719Z,18.50
2023-01-21T08:28:44.335Z,19.60
2023-01-21T08:31:16.175Z,17.90
2023-01-21T08:33:47.128Z,18.23
2023-01-21T08:36:18.406Z,19.80
2023-01-21T08:38:49.506Z,18.95
2023-01-21T08:41:20.779Z,18.40
2023-01-21T08:43:52.493Z,17.27
2023-01-21T08:46:23.780Z,18.85
2023-01-21T08:48:55.762Z,19.00
2023-01-21T08:51:27.172Z,18.75
2023-01-21T08:54:00.599Z,17.95
2023-01-21T08:56:31.602Z,19.50
2023-01-21T08:59:29.978Z,18.60
2023-01-21T09:02:00.833Z,17.85
2023-01-21T09:04:31.910Z,18.85
2023-01-21T09:07:02.860Z,18.27
2023-01-21T09:09:33.786Z,18.42
2023-01-21T09:12:10.258Z,20.00
2023-01-21T09:17:25.378Z,17.83
2023-01-21T09:19:56.369Z,19.00
2023-01-21T09:22:27.294Z,18.73
2023-01-21T09:24:58.507Z,18.98
2023-01-21T09:27:29.578Z,19.10
2023-01-21T09:30:00.581Z,18.58
2023-01-21T09:32:32.803Z,19.33
2023-01-21T09:35:03.661Z,18.27
2023-01-21T09:37:39.509Z,19.00
2023-01-21T09:40:17.527Z,18.08
2023-01-21T09:42:48.727Z,18.77
2023-01-21T09:45:22.134Z,18.75
2023-01-21T09:47:56.659Z,19.00
2023-01-21T09:50:27.916Z,18.52
2023-01-21T09:53:06.617Z,20.10
2023-01-21T09:55:48.672Z,18.63
2023-01-21T09:58:49.472Z,19.23
2023-01-21T10:01:38.180Z,19.65
2023-01-21T10:04:34.185Z,18.88
2023-01-21T10:07:23.746Z,19.98
2023-01-21T10:10:10.724Z,18.55
2023-01-21T10:12:50.449Z,19.27
2023-01-21T10:15:29.547Z,19.77
2023-01-21T10:18:12.133Z,19.38
2023-01-21T10:21:12.991Z,18.98
2023-01-21T10:23:51.381Z,18.63
2023-01-21T10:26:43.483Z,18.67
2023-01-21T10:29:20.519Z,18.17
2023-01-21T10:34:53.943Z,19.08
2023-01-21T10:37:37.942Z,18.95
2023-01-21T10:40:38.643Z,18.70
2023-01-21T10:43:15.375Z,19.45
2023-01-21T10:46:04.608Z,18.73
2023-01-21T10:49:10.728Z,18.30
2023-01-21T10:52:04.612Z,20.63
2023-01-21T10:54:50.062Z,19.48
2023-01-21T10:57:29.595Z,19.77
2023-01-21T11:03:13.625Z,18.67
2023-01-21T11:08:29.997Z,18.83
2023-01-21T11:11:02.500Z,20.45
2023-01-21T11:13:33.604Z,18.48
2023-01-21T11:16:06.152Z,19.38
2023-01-21T11:18:43.477Z,19.48
2023-01-21T11:21:26.077Z,20.05
2023-01-21T11:23:59.512Z,19.45
2023-01-21T11:26:39.081Z,20.30
2023-01-21T11:29:19.886Z,19.83
2023-01-21T11:32:03.149Z,19.38
2023-01-21T11:34:35.039Z,19.38
2023-01-21T11:37:19.461Z,20.30
2023-01-21T11:42:35.118Z,19.17
2023-01-21T11:45:37.582Z,19.25
2023-01-21T11:48:23.153Z,18.98
2023-01-21T11:51:12.301Z,19.23
2023-01-21T11:53:44.456Z,21.13
2023-01-21T11:56:18.380Z,20.15
2023-01-21T11:58:50.000Z,20.23
2023-01-21T12:01:25.047Z,20.92
2023-01-21T12:04:02.517Z,21.90
2023-01-21T12:06:36.672Z,20.08
2023-01-21T12:09:09.605Z,18.35
2023-01-21T12:11:41.217Z,20.17
2023-01-21T12:14:57.098Z,20.88
2023-01-21T12:18:00.148Z,19.67
2023-01-21T12:21:35.810Z,19.77
2023-01-21T12:24:39.218Z,21.52
2023-01-21T12:27:40.625Z,20.27
2023-01-21T12:30:39.896Z,20.48
2023-01-21T12:33:36.590Z,21.00
2023-01-21T12:36:44.260Z,20.98
2023-01-21T12:40:54.985Z,20.95
2023-01-21T12:44:22.278Z,20.70
2023-01-21T12:46:58.519Z,21.55
2023-01-21T12:49:59.347Z,21.25
2023-01-21T12:52:40.922Z,22.27
2023-01-21T12:55:46.422Z,21.75
2023-01-21T12:58:20.866Z,21.80
2023-01-21T13:01:17.938Z,22.25
2023-01-21T13:04:10.912Z,22.38
2023-01-21T13:06:54.724Z,22.50
2023-01-21T13:10:05.941Z,23.05
2023-01-21T13:12:40.136Z,21.90
2023-01-21T13:15:20.574Z,23.42
2023-01-21T13:18:03.829Z,21.95
2023-01-21T13:20:39.966Z,22.27
2023-01-21T13:23:25.062Z,22.70
2023-01-21T13:26:08.884Z,22.73
2023-01-21T13:29:07.391Z,24.80
2023-01-21T13:32:16.848Z,22.15
2023-01-21T13:36:01.786Z,22.98
2023-01-21T13:38:58.523Z,20.45
2023-01-21T13:41:41.520Z,22.77
2023-01-21T13:44:32.541Z,22.38
2023-01-21T13:47:40.742Z,22.98
2023-01-21T13:50:36.640Z,22.33
2023-01-21T13:53:31.785Z,22.55
2023-01-21T13:56:20.095Z,24.13
2023-01-21T13:59:07.614Z,23.80
2023-01-21T14:01:45.893Z,23.95
2023-01-21T14:04:23.896Z,23.83
2023-01-21T14:06:54.962Z,23.58
2023-01-21T14:09:34.916Z,23.40
2023-01-21T14:12:27.092Z,23.45
2023-01-21T14:18:25.695Z,24.27
2023-01-21T14:21:11.012Z,23.88
2023-01-21T14:24:12.328Z,24.80
2023-01-21T14:26:53.210Z,24.50
2023-01-21T14:29:48.104Z,24.08
2023-01-21T14:32:46.722Z,23.63
2023-01-21T14:35:39.094Z,23.67
2023-01-21T14:38:20.033Z,23.85
2023-01-21T14:40:53.784Z,23.83
2023-01-21T14:46:03.144Z,22.90
2023-01-21T14:48:37.474Z,24.60
2023-01-21T14:51:09.284Z,24.23
2023-01-21T14:53:54.817Z,24.10
2023-01-21T14:56:28.638Z,24.65
2023-01-21T14:59:47.726Z,25.88
2023-01-21T15:02:25.720Z,24.17
2023-01-21T15:05:06.987Z,24.55
2023-01-21T15:07:42.764Z,23.88
2023-01-21T15:10:43.936Z,24.08
2023-01-21T15:13:25.823Z,23.40
2023-01-21T15:16:29.266Z,23.33
2023-01-21T15:19:16.023Z,24.60
2023-01-21T15:22:05.084Z,24.70
2023-01-21T15:24:43.310Z,23.35
2023-01-21T15:27:24.252Z,24.17
2023-01-21T15:29:59.343Z,24.60
2023-01-21T15:32:37.791Z,25.00
2023-01-21T15:35:48.501Z,25.45
2023-01-21T15:38:22.253Z,24.30
2023-01-21T15:41:28.755Z,23.75
2023-01-21T15:44:30.021Z,25.38
2023-01-21T15:47:12.711Z,24.73
2023-01-21T15:50:34.264Z,25.02
2023-01-21T15:53:19.937Z,26.20
2023-01-21T15:55:56.663Z,25.35
2023-01-21T15:58:43.634Z,25.50
2023-01-21T16:01:38.778Z,27.63
2023-01-21T16:04:28.040Z,27.90
2023-01-21T16:07:26.117Z,29.50
2023-01-21T16:10:11.968Z,29.10
2023-01-21T16:13:08.712Z,31.35
2023-01-21T16:15:53.902Z,30.92
2023-01-21T16:19:05.997Z,32.20
2023-01-21T16:21:41.659Z,32.42
2023-01-21T16:24:32.127Z,31.63
2023-01-21T16:27:33.724Z,31.90
2023-01-21T16:30:14.905Z,32.20
2023-01-21T16:32:47.526Z,32.50
2023-01-21T16:35:19.354Z,32.65
2023-01-21T16:37:57.759Z,32.72
2023-01-21T16:40:33.321Z,32.22
2023-01-21T16:43:14.705Z,34.00
2023-01-21T16:46:04.287Z,33.00
2023-01-21T16:48:38.123Z,32.60
2023-01-21T16:51:16.954Z,31.85
2023-01-21T16:53:48.376Z,32.83
2023-01-21T16:56:32.230Z,31.45
2023-01-21T16:59:35.878Z,31.80
2023-01-21T17:02:13.694Z,32.63
2023-01-21T17:04:44.991Z,30.65
2023-01-21T17:07:21.788Z,34.40
2023-01-21T17:10:14.430Z,31.55
2023-01-21T17:13:01.323Z,32.83
2023-01-21T17:15:46.719Z,32.60
2023-01-21T17:18:26.221Z,32.17
2023-01-21T17:21:20.222Z,33.22
2023-01-21T17:24:12.893Z,31.40
2023-01-21T17:26:52.396Z,32.05
2023-01-21T17:29:30.731Z,32.30
2023-01-21T17:32:24.962Z,32.40
2023-01-21T17:35:26.044Z,31.25
2023-01-21T17:38:02.941Z,32.38
2023-01-21T17:41:06.373Z,32.70
2023-01-21T17:43:41.259Z,32.53
2023-01-21T17:46:16.605Z,31.67
2023-01-21T17:51:33.387Z,32.13
2023-01-21T17:54:07.460Z,33.55
2023-01-21T17:57:03.144Z,33.58
2023-01-21T17:59:53.811Z,33.65
2023-01-21T18:02:26.043Z,30.85
2023-01-21T18:04:56.825Z,33.63
2023-01-21T18:07:34.632Z,31.05
2023-01-21T18:10:05.884Z,31.02
2023-01-21T18:12:36.864Z,32.55
2023-01-21T18:15:17.237Z,32.97
2023-01-21T18:17:57.728Z,31.90
2023-01-21T18:20:30.979Z,33.65
2023-01-21T18:23:04.936Z,32.03
2023-01-21T18:28:08.168Z,32.78
2023-01-21T18:30:39.038Z,32.38
2023-01-21T18:33:13.403Z,32.00
2023-01-21T18:35:49.418Z,32.55
2023-01-21T18:38:28.530Z,33.40
2023-01-21T18:40:59.840Z,32.85
2023-01-21T18:43:30.755Z,33.83
2023-01-21T18:46:01.865Z,31.83
2023-01-21T18:48:34.902Z,33.35
2023-01-21T18:51:06.252Z,31.15
2023-01-21T18:53:37.044Z,33.15
2023-01-21T18:56:11.729Z,33.80
2023-01-21T18:58:42.637Z,31.65
2023-01-21T19:01:23.501Z,33.50
2023-01-21T19:03:57.783Z,33.75
2023-01-21T19:06:28.659Z,31.60
2023-01-21T19:09:00.112Z,33.72
2023-01-21T19:11:31.064Z,33.78
2023-01-21T19:16:47.658Z,32.60
2023-01-21T19:19:21.673Z,32.30
2023-01-21T19:24:24.415Z,31.80
2023-01-21T19:26:55.197Z,33.95
2023-01-21T19:29:28.351Z,32.65
2023-01-21T19:31:59.061Z,32.78
2023-01-21T19:34:29.871Z,33.05
2023-01-21T19:37:04.610Z,33.00
2023-01-21T19:39:54.892Z,33.97
2023-01-21T19:42:25.494Z,33.40
2023-01-21T19:44:56.431Z,33.88
2023-01-21T19:47:31.776Z,33.45
2023-01-21T19:50:02.680Z,31.38
2023-01-21T19:52:35.102Z,33.58
2023-01-21T19:55:07.111Z,32.67
2023-01-21T19:57:39.795Z,32.80
2023-01-21T20:00:32.904Z,34.22
2023-01-21T20:03:03.720Z,34.08
2023-01-21T20:05:35.301Z,34.63
2023-01-21T20:08:06.404Z,42.28
2023-01-21T20:10:37.250Z,36.95
2023-01-21T20:13:49.053Z,36.70
2023-01-21T20:16:24.982Z,41.28
2023-01-21T20:19:01.176Z,46.10
2023-01-21T20:21:31.858Z,47.92
2023-01-21T20:24:02.679Z,47.13
2023-01-21T20:26:33.598Z,43.97
2023-01-21T20:29:05.208Z,46.05
2023-01-21T20:31:37.039Z,43.55
2023-01-21T20:34:28.944Z,41.53
2023-01-21T20:39:45.336Z,45.63
2023-01-21T20:42:16.534Z,42.72
2023-01-21T20:44:47.381Z,42.38
2023-01-21T20:47:37.826Z,42.78
2023-01-21T20:50:21.217Z,43.97
2023-01-21T20:52:53.105Z,41.55
2023-01-21T20:55:25.646Z,44.70
2023-01-21T20:57:58.366Z,40.08
2023-01-21T21:00:33.413Z,45.03
2023-01-21T21:03:04.595Z,40.90
2023-01-21T21:05:35.768Z,41.75
2023-01-21T21:08:06.863Z,43.35
2023-01-21T21:10:38.535Z,39.13
2023-01-21T21:13:09.664Z,41.20
2023-01-21T21:15:40.887Z,41.22
2023-01-21T21:18:14.964Z,38.80
2023-01-21T21:20:45.855Z,40.25
2023-01-21T21:23:18.048Z,41.75
2023-01-21T21:25:49.996Z,41.78
2023-01-21T21:28:22.752Z,41.10
2023-01-21T21:31:14.623Z,41.05
2023-01-21T21:33:46.424Z,42.22
2023-01-21T21:36:19.069Z,41.58
2023-01-21T21:38:50.838Z,39.38
2023-01-21T21:44:33.167Z,37.55
2023-01-21T21:47:21.805Z,39.70
2023-01-21T21:49:52.436Z,38.80
2023-01-21T21:52:24.247Z,39.20
2023-01-21T21:54:56.269Z,37.75
2023-01-21T21:57:27.885Z,39.50
2023-01-21T21:59:58.721Z,38.17
2023-01-21T22:02:31.097Z,39.83
2023-01-21T22:05:03.314Z,40.42
2023-01-21T22:07:34.429Z,40.22
2023-01-21T22:12:54.050Z,41.53
2023-01-21T22:15:25.017Z,39.50
2023-01-21T22:17:55.873Z,40.15
2023-01-21T22:20:26.592Z,41.05
2023-01-21T22:22:57.160Z,40.45
2023-01-21T22:25:28.879Z,38.97
2023-01-21T22:28:00.477Z,40.72
2023-01-21T22:30:31.451Z,41.22
2023-01-21T22:33:02.449Z,40.83
2023-01-21T22:35:33.292Z,40.03
2023-01-21T22:38:23.939Z,41.13
2023-01-21T22:40:55.626Z,38.05
2023-01-21T22:43:46.931Z,39.17
2023-01-21T22:46:21.293Z,38.25
2023-01-21T22:48:52.576Z,38.05
2023-01-21T22:51:24.202Z,41.28
2023-01-21T22:53:55.887Z,40.75
2023-01-21T22:56:52.656Z,40.33
2023-01-21T22:59:23.611Z,39.95
2023-01-21T23:02:15.734Z,40.75
2023-01-21T23:04:47.365Z,39.08
2023-01-21T23:07:18.029Z,41.58
2023-01-21T23:09:48.921Z,39.10
2023-01-21T23:12:22.286Z,40.80
2023-01-21T23:14:53.307Z,40.53
2023-01-21T23:17:37.011Z,38.00
2023-01-21T23:20:08.873Z,38.78
2023-01-21T23:22:39.978Z,39.42
2023-01-21T23:25:11.790Z,39.78
2023-01-21T23:27:42.633Z,40.72
2023-01-21T23:30:15.170Z,40.50
2023-01-21T23:32:46.320Z,43.45
2023-01-21T23:35:17.859Z,41.63
2023-01-21T23:37:48.781Z,42.30
2023-01-21T23:40:21.284Z,39.67
2023-01-21T23:42:52.811Z,42.13
2023-01-21T23:45:24.492Z,41.85
2023-01-21T23:47:56.031Z,42.83
2023-01-21T23:50:28.309Z,52.85
2023-01-21T23:52:59.229Z,46.45
2023-01-21T23:55:29.959Z,53.03
2023-01-21T23:58:00.938Z,48.72
